createdAt,value
2019-05-29T00:04:56.380Z,2.10
2019-05-29T00:10:20.474Z,2.30
2019-05-29T00:15:45.304Z,2.43
2019-05-29T00:21:11.556Z,1.93
2019-05-29T00:26:34.801Z,1.70
2019-05-29T00:31:59.555Z,1.73
2019-05-29T00:37:24.123Z,1.90
2019-05-29T00:42:48.742Z,2.10
2019-05-29T00:48:14.047Z,2.00
2019-05-29T00:53:39.570Z,2.03
2019-05-29T00:59:03.943Z,2.03
2019-05-29T01:04:28.801Z,1.70
2019-05-29T01:09:53.183Z,1.83
2019-05-29T01:15:18.101Z,1.93
2019-05-29T01:20:42.795Z,1.70
2019-05-29T01:26:06.539Z,2.00
2019-05-29T01:31:30.717Z,1.70
2019-05-29T01:36:55.270Z,2.37
2019-05-29T01:42:19.965Z,2.10
2019-05-29T01:47:44.746Z,1.63
2019-05-29T01:53:09.326Z,2.00
2019-05-29T01:58:34.056Z,2.00
2019-05-29T02:03:58.875Z,2.17
2019-05-29T02:09:24.297Z,1.97
2019-05-29T02:14:49.021Z,1.90
2019-05-29T02:20:13.348Z,2.20
2019-05-29T02:25:38.366Z,2.07
2019-05-29T02:31:02.796Z,1.93
2019-05-29T02:36:28.253Z,2.03
2019-05-29T02:41:53.138Z,1.50
2019-05-29T02:47:17.305Z,1.80
2019-05-29T02:52:42.255Z,2.10
2019-05-29T02:58:06.662Z,2.27
2019-05-29T03:03:38.002Z,1.67
2019-05-29T03:08:56.010Z,2.03
2019-05-29T03:14:20.348Z,2.10
2019-05-29T03:19:45.949Z,1.90
2019-05-29T03:25:10.588Z,2.07
2019-05-29T03:30:42.182Z,2.50
2019-05-29T03:36:00.346Z,2.20
2019-05-29T03:41:24.194Z,2.73
2019-05-29T03:46:48.161Z,2.10
2019-05-29T03:52:12.447Z,2.40
2019-05-29T03:57:37.852Z,2.67
2019-05-29T04:03:02.672Z,2.20
2019-05-29T04:08:29.458Z,2.10
2019-05-29T04:13:53.590Z,2.30
2019-05-29T04:19:19.044Z,2.30
2019-05-29T04:24:43.674Z,2.40
2019-05-29T04:30:08.475Z,2.23
2019-05-29T04:35:34.597Z,2.23
2019-05-29T04:40:59.258Z,2.40
2019-05-29T04:46:23.988Z,2.13
2019-05-29T04:51:48.668Z,2.17
2019-05-29T04:57:12.431Z,2.03
2019-05-29T05:02:37.292Z,1.60
2019-05-29T05:08:01.151Z,2.87
2019-05-29T05:13:25.817Z,2.90
2019-05-29T05:18:50.269Z,2.10
2019-05-29T05:24:14.415Z,1.67
2019-05-29T05:29:38.851Z,2.03
2019-05-29T05:35:02.859Z,1.80
2019-05-29T05:40:26.401Z,3.03
2019-05-29T05:45:51.048Z,2.00
2019-05-29T05:51:15.015Z,1.70
2019-05-29T05:56:39.806Z,1.70
2019-05-29T06:02:04.652Z,1.50
2019-05-29T06:07:28.691Z,1.60
2019-05-29T06:12:52.423Z,1.50
2019-05-29T06:18:21.648Z,1.80
2019-05-29T06:23:43.745Z,1.52
2019-05-29T06:29:07.605Z,1.62
2019-05-29T06:34:31.586Z,1.62
2019-05-29T06:39:56.215Z,1.57
2019-05-29T06:45:23.973Z,1.47
2019-05-29T06:50:48.234Z,1.50
2019-05-29T06:56:12.707Z,1.62
2019-05-29T07:01:37.488Z,1.40
2019-05-29T07:07:01.355Z,1.55
2019-05-29T07:12:25.388Z,1.90
2019-05-29T07:17:50.058Z,1.80
2019-05-29T07:23:14.803Z,1.70
2019-05-29T07:28:59.771Z,1.75
2019-05-29T07:34:05.227Z,1.72
2019-05-29T07:39:29.399Z,1.55
2019-05-29T07:44:53.168Z,1.57
2019-05-29T07:50:18.494Z,2.47
2019-05-29T07:55:42.716Z,1.75
2019-05-29T08:01:13.176Z,1.50
2019-05-29T08:06:33.804Z,1.50
2019-05-29T08:11:58.373Z,1.30
2019-05-29T08:17:23.181Z,1.40
2019-05-29T08:22:46.793Z,1.47
2019-05-29T08:28:11.304Z,1.20
2019-05-29T08:33:35.901Z,1.20
2019-05-29T08:38:59.856Z,1.30
2019-05-29T08:44:24.683Z,1.52
2019-05-29T08:49:53.139Z,1.55
2019-05-29T08:55:15.667Z,1.45
2019-05-29T09:00:45.589Z,1.30
2019-05-29T09:06:09.619Z,1.22
2019-05-29T09:11:32.436Z,1.72
2019-05-29T09:16:57.724Z,1.55
2019-05-29T09:22:22.930Z,1.70
2019-05-29T09:27:47.428Z,1.40
2019-05-29T09:33:15.289Z,1.60
2019-05-29T09:38:37.929Z,1.20
2019-05-29T09:44:02.833Z,1.10
2019-05-29T09:49:28.091Z,1.42
2019-05-29T09:54:53.447Z,1.17
2019-05-29T10:00:19.639Z,1.30
2019-05-29T10:05:44.252Z,1.25
2019-05-29T10:11:10.981Z,1.35
2019-05-29T10:16:34.578Z,1.32
2019-05-29T10:22:00.753Z,1.40
2019-05-29T10:27:23.587Z,1.35
2019-05-29T10:32:48.183Z,1.60
2019-05-29T10:38:12.211Z,1.30
2019-05-29T10:43:36.880Z,1.82
2019-05-29T10:49:04.830Z,1.30
2019-05-29T10:54:28.688Z,1.17
2019-05-29T10:59:53.033Z,1.65
2019-05-29T11:05:18.130Z,1.40
2019-05-29T11:10:41.872Z,1.65
2019-05-29T11:16:06.629Z,1.40
2019-05-29T11:21:30.847Z,1.40
2019-05-29T11:26:56.664Z,1.37
2019-05-29T11:32:20.333Z,1.42
2019-05-29T11:37:45.096Z,1.40
2019-05-29T11:43:09.557Z,1.35
2019-05-29T11:48:33.353Z,1.37
2019-05-29T11:53:57.887Z,1.52
2019-05-29T11:59:21.628Z,1.22
2019-05-29T12:04:46.373Z,1.40
2019-05-29T12:10:11.432Z,1.40
2019-05-29T12:15:35.223Z,1.50
2019-05-29T12:21:01.099Z,1.60
2019-05-29T12:26:24.543Z,1.17
2019-05-29T12:31:48.322Z,1.47
2019-05-29T12:37:12.563Z,1.40
2019-05-29T12:42:37.613Z,1.20
2019-05-29T12:48:06.485Z,1.12
2019-05-29T12:53:30.926Z,1.50
2019-05-29T12:58:54.442Z,1.30
2019-05-29T13:04:18.028Z,1.30
2019-05-29T13:09:43.016Z,1.32
2019-05-29T13:15:07.804Z,1.75
2019-05-29T13:20:32.212Z,1.02
2019-05-29T13:25:57.334Z,1.30
2019-05-29T13:31:21.962Z,1.40
2019-05-29T13:36:47.118Z,1.27
2019-05-29T13:42:12.219Z,1.65
2019-05-29T13:47:37.052Z,1.30
2019-05-29T13:53:01.292Z,1.20
2019-05-29T13:58:25.066Z,1.40
2019-05-29T14:03:50.619Z,1.35
2019-05-29T14:09:15.707Z,1.77
2019-05-29T14:14:39.312Z,1.10
2019-05-29T14:20:04.682Z,1.42
2019-05-29T14:25:29.657Z,1.30
2019-05-29T14:30:54.365Z,1.17
2019-05-29T14:36:18.635Z,1.70
2019-05-29T14:41:43.425Z,1.50
2019-05-29T14:47:08.262Z,1.27
2019-05-29T14:52:32.509Z,1.52
2019-05-29T14:57:56.165Z,1.45
2019-05-29T15:03:20.671Z,1.00
2019-05-29T15:08:46.332Z,1.35
2019-05-29T15:14:12.339Z,1.22
2019-05-29T15:19:37.342Z,1.35
2019-05-29T15:25:13.468Z,1.50
2019-05-29T15:30:27.317Z,1.40
2019-05-29T15:35:50.887Z,1.20
2019-05-29T15:41:16.895Z,1.62
2019-05-29T15:46:40.997Z,1.42
2019-05-29T15:52:04.806Z,1.40
2019-05-29T15:57:29.117Z,1.77
2019-05-29T16:02:55.879Z,1.50
2019-05-29T16:08:21.605Z,1.47
2019-05-29T16:13:46.406Z,1.20
2019-05-29T16:19:10.348Z,2.85
2019-05-29T16:24:34.748Z,1.42
2019-05-29T16:29:58.767Z,1.32
2019-05-29T16:35:24.107Z,1.60
2019-05-29T16:40:49.314Z,1.45
2019-05-29T16:46:17.330Z,1.50
2019-05-29T16:51:41.945Z,5.35
2019-05-29T16:57:05.028Z,1.60
2019-05-29T17:02:30.098Z,1.25
2019-05-29T17:07:54.722Z,1.10
2019-05-29T17:13:18.725Z,1.37
2019-05-29T17:18:44.610Z,1.95
2019-05-29T17:24:09.973Z,1.45
2019-05-29T17:29:34.001Z,1.47
2019-05-29T17:34:58.613Z,1.80
2019-05-29T17:40:23.566Z,1.42
2019-05-29T17:45:48.357Z,1.45
2019-05-29T17:51:13.246Z,1.50
2019-05-29T17:56:37.829Z,1.32
2019-05-29T18:02:02.555Z,1.30
2019-05-29T18:07:27.269Z,1.85
2019-05-29T18:12:52.102Z,1.77
2019-05-29T18:18:17.349Z,1.50
2019-05-29T18:23:41.050Z,1.60
2019-05-29T18:29:05.125Z,1.53
2019-05-29T18:34:29.841Z,1.20
2019-05-29T18:39:55.732Z,1.30
2019-05-29T18:45:22.867Z,1.93
2019-05-29T18:50:45.355Z,1.40
2019-05-29T18:56:09.031Z,1.50
2019-05-29T19:01:32.717Z,1.60
2019-05-29T19:06:58.673Z,1.80
2019-05-29T19:12:23.727Z,1.50
2019-05-29T19:17:49.359Z,2.00
2019-05-29T19:23:13.970Z,1.77
2019-05-29T19:28:38.740Z,1.60
2019-05-29T19:34:02.758Z,1.93
2019-05-29T19:39:27.979Z,2.10
2019-05-29T19:44:52.088Z,2.17
2019-05-29T19:50:17.049Z,1.73
2019-05-29T19:55:42.214Z,1.90
2019-05-29T20:01:07.217Z,2.07
2019-05-29T20:06:33.089Z,1.80
2019-05-29T20:11:57.580Z,1.60
2019-05-29T20:17:21.416Z,2.03
2019-05-29T20:22:46.408Z,6.43
2019-05-29T20:28:10.207Z,3.10
2019-05-29T20:33:34.635Z,3.17
2019-05-29T20:38:58.464Z,3.07
2019-05-29T20:44:22.174Z,3.77
2019-05-29T20:49:47.666Z,9.93
2019-05-29T20:55:13.140Z,6.10
2019-05-29T21:00:38.290Z,6.73
2019-05-29T21:06:02.274Z,4.17
2019-05-29T21:11:26.132Z,5.57
2019-05-29T21:16:50.720Z,5.57
2019-05-29T21:22:15.330Z,10.60
2019-05-29T21:27:43.947Z,5.20
2019-05-29T21:33:05.720Z,3.67
2019-05-29T21:38:29.942Z,5.17
2019-05-29T21:43:53.543Z,3.97
2019-05-29T21:49:18.035Z,3.80
2019-05-29T21:54:43.568Z,4.10
2019-05-29T22:00:14.036Z,4.37
2019-05-29T22:05:40.520Z,5.07
2019-05-29T22:11:04.821Z,5.43
2019-05-29T22:16:29.532Z,4.57
2019-05-29T22:21:55.002Z,5.20
2019-05-29T22:27:18.796Z,4.77
2019-05-29T22:32:42.777Z,5.73
2019-05-29T22:38:07.542Z,4.67
2019-05-29T22:43:32.221Z,4.10
2019-05-29T22:48:57.821Z,3.73
2019-05-29T22:54:22.483Z,3.50
2019-05-29T22:59:47.028Z,4.60
2019-05-29T23:05:11.821Z,3.83
2019-05-29T23:10:36.286Z,3.50
2019-05-29T23:16:00.963Z,4.00
2019-05-29T23:21:25.688Z,3.43
2019-05-29T23:26:50.719Z,3.87
2019-05-29T23:32:15.145Z,3.47
2019-05-29T23:37:38.959Z,3.60
2019-05-29T23:43:03.703Z,3.93
2019-05-29T23:48:27.881Z,3.97
2019-05-29T23:53:51.649Z,4.30
2019-05-29T23:59:16.408Z,4.10
